sensor_id;sensor_type;location;lat;lon;timestamp;P1;durP1;ratioP1;P2;durP2;ratioP2
66886;SDS011;67239;51.680;5.976;2023-04-15T00:01:10;8.65;;;4.10;;
66886;SDS011;67239;51.680;5.976;2023-04-15T00:03:37;11.40;;;4.65;;
66886;SDS011;67239;51.680;5.976;2023-04-15T00:06:05;9.15;;;4.32;;
66886;SDS011;67239;51.680;5.976;2023-04-15T00:08:32;6.65;;;4.20;;
66886;SDS011;67239;51.680;5.976;2023-04-15T00:10:59;10.40;;;4.70;;
66886;SDS011;67239;51.680;5.976;2023-04-15T00:13:29;8.40;;;4.38;;
66886;SDS011;67239;51.680;5.976;2023-04-15T00:15:56;8.07;;;4.28;;
66886;SDS011;67239;51.680;5.976;2023-04-15T00:18:23;7.57;;;4.03;;
66886;SDS011;67239;51.680;5.976;2023-04-15T00:20:51;9.48;;;4.47;;
66886;SDS011;67239;51.680;5.976;2023-04-15T00:23:18;6.75;;;4.20;;
66886;SDS011;67239;51.680;5.976;2023-04-15T00:25:45;8.63;;;4.50;;
66886;SDS011;67239;51.680;5.976;2023-04-15T00:28:12;5.75;;;4.30;;
66886;SDS011;67239;51.680;5.976;2023-04-15T00:30:39;7.22;;;4.10;;
66886;SDS011;67239;51.680;5.976;2023-04-15T00:33:08;7.55;;;4.10;;
66886;SDS011;67239;51.680;5.976;2023-04-15T00:35:35;8.25;;;4.35;;
66886;SDS011;67239;51.680;5.976;2023-04-15T00:38:03;9.77;;;4.18;;
66886;SDS011;67239;51.680;5.976;2023-04-15T00:40:31;6.78;;;4.50;;
66886;SDS011;67239;51.680;5.976;2023-04-15T00:42:59;7.65;;;4.40;;
66886;SDS011;67239;51.680;5.976;2023-04-15T00:45:26;7.75;;;4.25;;
66886;SDS011;67239;51.680;5.976;2023-04-15T00:47:56;8.45;;;4.45;;
66886;SDS011;67239;51.680;5.976;2023-04-15T00:50:24;8.50;;;4.28;;
66886;SDS011;67239;51.680;5.976;2023-04-15T00:52:51;6.55;;;4.30;;
66886;SDS011;67239;51.680;5.976;2023-04-15T00:55:18;8.57;;;4.50;;
66886;SDS011;67239;51.680;5.976;2023-04-15T00:57:45;9.65;;;4.80;;
66886;SDS011;67239;51.680;5.976;2023-04-15T01:00:12;8.20;;;4.32;;
66886;SDS011;67239;51.680;5.976;2023-04-15T01:02:51;7.85;;;4.40;;
66886;SDS011;67239;51.680;5.976;2023-04-15T01:05:18;8.25;;;4.28;;
66886;SDS011;67239;51.680;5.976;2023-04-15T01:07:46;8.02;;;4.53;;
66886;SDS011;67239;51.680;5.976;2023-04-15T01:10:14;7.40;;;4.40;;
66886;SDS011;67239;51.680;5.976;2023-04-15T01:12:42;6.82;;;4.43;;
66886;SDS011;67239;51.680;5.976;2023-04-15T01:15:10;7.35;;;4.53;;
66886;SDS011;67239;51.680;5.976;2023-04-15T01:17:37;8.77;;;5.03;;
66886;SDS011;67239;51.680;5.976;2023-04-15T01:20:06;6.47;;;4.72;;
66886;SDS011;67239;51.680;5.976;2023-04-15T01:22:37;6.93;;;4.68;;
66886;SDS011;67239;51.680;5.976;2023-04-15T01:27:45;7.25;;;4.72;;
66886;SDS011;67239;51.680;5.976;2023-04-15T01:30:13;6.85;;;4.97;;
66886;SDS011;67239;51.680;5.976;2023-04-15T01:32:41;8.25;;;4.88;;
66886;SDS011;67239;51.680;5.976;2023-04-15T01:35:08;7.22;;;4.80;;
66886;SDS011;67239;51.680;5.976;2023-04-15T01:37:35;7.10;;;4.80;;
66886;SDS011;67239;51.680;5.976;2023-04-15T01:40:03;8.82;;;5.40;;
66886;SDS011;67239;51.680;5.976;2023-04-15T01:42:31;9.07;;;5.50;;
66886;SDS011;67239;51.680;5.976;2023-04-15T01:44:58;10.63;;;5.28;;
66886;SDS011;67239;51.680;5.976;2023-04-15T01:47:25;7.68;;;5.47;;
66886;SDS011;67239;51.680;5.976;2023-04-15T01:49:52;7.45;;;5.35;;
66886;SDS011;67239;51.680;5.976;2023-04-15T01:52:20;7.28;;;5.38;;
66886;SDS011;67239;51.680;5.976;2023-04-15T01:54:47;7.30;;;5.30;;
66886;SDS011;67239;51.680;5.976;2023-04-15T01:57:14;8.55;;;5.35;;
66886;SDS011;67239;51.680;5.976;2023-04-15T01:59:42;8.60;;;5.70;;
66886;SDS011;67239;51.680;5.976;2023-04-15T02:02:09;10.45;;;5.75;;
66886;SDS011;67239;51.680;5.976;2023-04-15T02:04:36;7.45;;;5.43;;
66886;SDS011;67239;51.680;5.976;2023-04-15T02:07:03;9.05;;;5.80;;
66886;SDS011;67239;51.680;5.976;2023-04-15T02:09:30;10.13;;;5.75;;
66886;SDS011;67239;51.680;5.976;2023-04-15T02:11:57;10.15;;;5.70;;
66886;SDS011;67239;51.680;5.976;2023-04-15T02:14:25;10.85;;;6.13;;
66886;SDS011;67239;51.680;5.976;2023-04-15T02:16:53;8.52;;;5.90;;
66886;SDS011;67239;51.680;5.976;2023-04-15T02:19:20;7.10;;;5.70;;
66886;SDS011;67239;51.680;5.976;2023-04-15T02:21:47;8.45;;;5.68;;
66886;SDS011;67239;51.680;5.976;2023-04-15T02:24:16;7.22;;;6.07;;
66886;SDS011;67239;51.680;5.976;2023-04-15T02:26:43;8.77;;;6.07;;
66886;SDS011;67239;51.680;5.976;2023-04-15T02:29:10;8.90;;;6.53;;
66886;SDS011;67239;51.680;5.976;2023-04-15T02:31:39;8.18;;;6.15;;
66886;SDS011;67239;51.680;5.976;2023-04-15T02:34:07;8.38;;;6.15;;
66886;SDS011;67239;51.680;5.976;2023-04-15T02:36:34;7.72;;;6.22;;
66886;SDS011;67239;51.680;5.976;2023-04-15T02:39:04;8.82;;;5.97;;
66886;SDS011;67239;51.680;5.976;2023-04-15T02:41:31;10.35;;;6.10;;
66886;SDS011;67239;51.680;5.976;2023-04-15T02:43:58;10.95;;;6.03;;
66886;SDS011;67239;51.680;5.976;2023-04-15T02:46:27;9.32;;;6.22;;
66886;SDS011;67239;51.680;5.976;2023-04-15T02:48:54;9.98;;;6.53;;
66886;SDS011;67239;51.680;5.976;2023-04-15T02:51:22;8.40;;;6.65;;
66886;SDS011;67239;51.680;5.976;2023-04-15T02:53:49;9.50;;;5.93;;
66886;SDS011;67239;51.680;5.976;2023-04-15T02:56:17;8.43;;;6.40;;
66886;SDS011;67239;51.680;5.976;2023-04-15T02:58:45;9.63;;;6.28;;
66886;SDS011;67239;51.680;5.976;2023-04-15T03:01:12;10.27;;;6.25;;
66886;SDS011;67239;51.680;5.976;2023-04-15T03:03:40;10.43;;;6.20;;
66886;SDS011;67239;51.680;5.976;2023-04-15T03:06:08;8.20;;;6.10;;
66886;SDS011;67239;51.680;5.976;2023-04-15T03:08:35;8.60;;;6.50;;
66886;SDS011;67239;51.680;5.976;2023-04-15T03:11:03;7.97;;;6.05;;
66886;SDS011;67239;51.680;5.976;2023-04-15T03:13:32;11.50;;;6.65;;
66886;SDS011;67239;51.680;5.976;2023-04-15T03:16:09;7.60;;;6.60;;
66886;SDS011;67239;51.680;5.976;2023-04-15T03:18:37;9.85;;;6.90;;
66886;SDS011;67239;51.680;5.976;2023-04-15T03:21:04;10.63;;;7.30;;
66886;SDS011;67239;51.680;5.976;2023-04-15T03:23:34;9.65;;;6.85;;
66886;SDS011;67239;51.680;5.976;2023-04-15T03:26:02;10.93;;;6.90;;
66886;SDS011;67239;51.680;5.976;2023-04-15T03:28:32;9.73;;;6.95;;
66886;SDS011;67239;51.680;5.976;2023-04-15T03:31:00;10.75;;;6.40;;
66886;SDS011;67239;51.680;5.976;2023-04-15T03:33:27;10.45;;;6.93;;
66886;SDS011;67239;51.680;5.976;2023-04-15T03:35:54;12.20;;;7.38;;
66886;SDS011;67239;51.680;5.976;2023-04-15T03:38:21;9.63;;;7.20;;
66886;SDS011;67239;51.680;5.976;2023-04-15T03:40:48;9.98;;;7.63;;
66886;SDS011;67239;51.680;5.976;2023-04-15T03:43:15;11.18;;;7.47;;
66886;SDS011;67239;51.680;5.976;2023-04-15T03:45:42;8.85;;;7.15;;
66886;SDS011;67239;51.680;5.976;2023-04-15T03:48:09;10.48;;;7.32;;
66886;SDS011;67239;51.680;5.976;2023-04-15T03:50:44;10.88;;;7.32;;
66886;SDS011;67239;51.680;5.976;2023-04-15T03:53:11;10.63;;;7.82;;
66886;SDS011;67239;51.680;5.976;2023-04-15T03:55:38;10.18;;;7.20;;
66886;SDS011;67239;51.680;5.976;2023-04-15T03:58:05;9.30;;;7.32;;
66886;SDS011;67239;51.680;5.976;2023-04-15T04:00:32;10.48;;;7.40;;
66886;SDS011;67239;51.680;5.976;2023-04-15T04:02:59;9.20;;;7.15;;
66886;SDS011;67239;51.680;5.976;2023-04-15T04:05:27;10.38;;;7.85;;
66886;SDS011;67239;51.680;5.976;2023-04-15T04:07:54;8.95;;;7.47;;
66886;SDS011;67239;51.680;5.976;2023-04-15T04:10:21;9.75;;;7.05;;
66886;SDS011;67239;51.680;5.976;2023-04-15T04:12:48;10.35;;;7.72;;
66886;SDS011;67239;51.680;5.976;2023-04-15T04:15:15;10.93;;;7.85;;
66886;SDS011;67239;51.680;5.976;2023-04-15T04:17:42;11.45;;;8.00;;
66886;SDS011;67239;51.680;5.976;2023-04-15T04:20:09;10.30;;;7.22;;
66886;SDS011;67239;51.680;5.976;2023-04-15T04:22:38;9.35;;;8.13;;
66886;SDS011;67239;51.680;5.976;2023-04-15T04:25:07;10.18;;;7.70;;
66886;SDS011;67239;51.680;5.976;2023-04-15T04:27:35;9.43;;;7.90;;
66886;SDS011;67239;51.680;5.976;2023-04-15T04:30:04;9.55;;;8.00;;
66886;SDS011;67239;51.680;5.976;2023-04-15T04:32:32;13.00;;;8.25;;
66886;SDS011;67239;51.680;5.976;2023-04-15T04:34:59;10.43;;;7.57;;
66886;SDS011;67239;51.680;5.976;2023-04-15T04:37:26;11.70;;;8.02;;
66886;SDS011;67239;51.680;5.976;2023-04-15T04:39:53;10.82;;;7.55;;
66886;SDS011;67239;51.680;5.976;2023-04-15T04:42:20;11.18;;;7.85;;
66886;SDS011;67239;51.680;5.976;2023-04-15T04:44:48;10.00;;;7.97;;
66886;SDS011;67239;51.680;5.976;2023-04-15T04:47:15;9.93;;;8.32;;
66886;SDS011;67239;51.680;5.976;2023-04-15T04:49:42;10.23;;;7.78;;
66886;SDS011;67239;51.680;5.976;2023-04-15T04:52:09;10.15;;;8.07;;
66886;SDS011;67239;51.680;5.976;2023-04-15T04:54:36;9.18;;;8.15;;
66886;SDS011;67239;51.680;5.976;2023-04-15T04:57:03;9.35;;;7.82;;
66886;SDS011;67239;51.680;5.976;2023-04-15T04:59:30;9.95;;;7.90;;
66886;SDS011;67239;51.680;5.976;2023-04-15T05:01:57;11.07;;;8.32;;
66886;SDS011;67239;51.680;5.976;2023-04-15T05:04:24;11.55;;;8.52;;
66886;SDS011;67239;51.680;5.976;2023-04-15T05:06:52;10.30;;;8.65;;
66886;SDS011;67239;51.680;5.976;2023-04-15T05:09:19;11.30;;;8.27;;
66886;SDS011;67239;51.680;5.976;2023-04-15T05:11:46;11.57;;;8.15;;
66886;SDS011;67239;51.680;5.976;2023-04-15T05:14:13;11.32;;;8.18;;
66886;SDS011;67239;51.680;5.976;2023-04-15T05:16:40;12.00;;;8.45;;
66886;SDS011;67239;51.680;5.976;2023-04-15T05:19:07;10.00;;;8.18;;
66886;SDS011;67239;51.680;5.976;2023-04-15T05:21:34;10.20;;;8.43;;
66886;SDS011;67239;51.680;5.976;2023-04-15T05:24:04;10.82;;;7.47;;
66886;SDS011;67239;51.680;5.976;2023-04-15T05:26:32;8.63;;;7.00;;
66886;SDS011;67239;51.680;5.976;2023-04-15T05:29:00;9.38;;;7.25;;
66886;SDS011;67239;51.680;5.976;2023-04-15T05:31:27;9.90;;;7.45;;
66886;SDS011;67239;51.680;5.976;2023-04-15T05:33:54;8.88;;;7.18;;
66886;SDS011;67239;51.680;5.976;2023-04-15T05:36:21;9.05;;;7.45;;
66886;SDS011;67239;51.680;5.976;2023-04-15T05:38:49;11.52;;;7.50;;
66886;SDS011;67239;51.680;5.976;2023-04-15T05:41:16;11.68;;;8.00;;
66886;SDS011;67239;51.680;5.976;2023-04-15T05:43:45;10.85;;;7.55;;
66886;SDS011;67239;51.680;5.976;2023-04-15T05:46:12;9.98;;;8.07;;
66886;SDS011;67239;51.680;5.976;2023-04-15T05:48:39;11.90;;;8.57;;
66886;SDS011;67239;51.680;5.976;2023-04-15T05:51:07;10.10;;;8.25;;
66886;SDS011;67239;51.680;5.976;2023-04-15T05:53:35;10.20;;;8.32;;
66886;SDS011;67239;51.680;5.976;2023-04-15T05:56:02;10.30;;;8.52;;
66886;SDS011;67239;51.680;5.976;2023-04-15T05:58:32;11.90;;;8.48;;
66886;SDS011;67239;51.680;5.976;2023-04-15T06:01:04;13.48;;;8.80;;
66886;SDS011;67239;51.680;5.976;2023-04-15T06:03:31;12.85;;;8.70;;
66886;SDS011;67239;51.680;5.976;2023-04-15T06:05:59;11.02;;;8.55;;
66886;SDS011;67239;51.680;5.976;2023-04-15T06:08:27;11.15;;;8.38;;
66886;SDS011;67239;51.680;5.976;2023-04-15T06:10:54;10.65;;;8.52;;
66886;SDS011;67239;51.680;5.976;2023-04-15T06:13:21;9.93;;;8.02;;
66886;SDS011;67239;51.680;5.976;2023-04-15T06:15:48;11.88;;;8.55;;
66886;SDS011;67239;51.680;5.976;2023-04-15T06:18:15;10.23;;;8.00;;
66886;SDS011;67239;51.680;5.976;2023-04-15T06:20:47;11.10;;;8.60;;
66886;SDS011;67239;51.680;5.976;2023-04-15T06:23:14;10.98;;;8.38;;
66886;SDS011;67239;51.680;5.976;2023-04-15T06:25:41;12.40;;;9.27;;
66886;SDS011;67239;51.680;5.976;2023-04-15T06:28:09;12.20;;;8.73;;
66886;SDS011;67239;51.680;5.976;2023-04-15T06:30:36;11.60;;;8.82;;
66886;SDS011;67239;51.680;5.976;2023-04-15T06:33:04;9.40;;;7.85;;
66886;SDS011;67239;51.680;5.976;2023-04-15T06:35:32;11.95;;;8.90;;
66886;SDS011;67239;51.680;5.976;2023-04-15T06:37:59;11.38;;;8.75;;
66886;SDS011;67239;51.680;5.976;2023-04-15T06:40:26;12.23;;;8.23;;
66886;SDS011;67239;51.680;5.976;2023-04-15T06:42:53;9.35;;;8.05;;
66886;SDS011;67239;51.680;5.976;2023-04-15T06:45:21;11.77;;;8.50;;
66886;SDS011;67239;51.680;5.976;2023-04-15T06:47:48;10.82;;;8.75;;
66886;SDS011;67239;51.680;5.976;2023-04-15T06:50:15;12.98;;;8.95;;
66886;SDS011;67239;51.680;5.976;2023-04-15T06:52:42;11.88;;;9.30;;
66886;SDS011;67239;51.680;5.976;2023-04-15T06:55:09;10.95;;;8.30;;
66886;SDS011;67239;51.680;5.976;2023-04-15T06:57:36;11.23;;;8.60;;
66886;SDS011;67239;51.680;5.976;2023-04-15T07:00:04;11.52;;;8.52;;
66886;SDS011;67239;51.680;5.976;2023-04-15T07:02:32;9.27;;;8.02;;
66886;SDS011;67239;51.680;5.976;2023-04-15T07:04:59;9.88;;;7.93;;
66886;SDS011;67239;51.680;5.976;2023-04-15T07:07:27;13.38;;;8.43;;
66886;SDS011;67239;51.680;5.976;2023-04-15T07:09:54;11.48;;;8.98;;
66886;SDS011;67239;51.680;5.976;2023-04-15T07:12:21;11.45;;;9.27;;
66886;SDS011;67239;51.680;5.976;2023-04-15T07:14:48;13.98;;;8.88;;
66886;SDS011;67239;51.680;5.976;2023-04-15T07:17:15;10.90;;;8.63;;
66886;SDS011;67239;51.680;5.976;2023-04-15T07:19:42;10.63;;;8.75;;
66886;SDS011;67239;51.680;5.976;2023-04-15T07:22:09;10.98;;;8.65;;
66886;SDS011;67239;51.680;5.976;2023-04-15T07:24:36;11.05;;;8.70;;
66886;SDS011;67239;51.680;5.976;2023-04-15T07:27:03;10.43;;;8.38;;
66886;SDS011;67239;51.680;5.976;2023-04-15T07:29:30;10.32;;;8.38;;
66886;SDS011;67239;51.680;5.976;2023-04-15T07:31:57;11.52;;;8.70;;
66886;SDS011;67239;51.680;5.976;2023-04-15T07:34:24;11.40;;;8.35;;
66886;SDS011;67239;51.680;5.976;2023-04-15T07:36:51;10.35;;;7.93;;
66886;SDS011;67239;51.680;5.976;2023-04-15T07:39:18;11.90;;;8.23;;
66886;SDS011;67239;51.680;5.976;2023-04-15T07:41:46;9.07;;;8.05;;
66886;SDS011;67239;51.680;5.976;2023-04-15T07:44:13;10.85;;;8.20;;
66886;SDS011;67239;51.680;5.976;2023-04-15T07:46:40;9.80;;;7.85;;
66886;SDS011;67239;51.680;5.976;2023-04-15T07:49:08;10.27;;;6.47;;
66886;SDS011;67239;51.680;5.976;2023-04-15T07:51:35;8.77;;;6.25;;
66886;SDS011;67239;51.680;5.976;2023-04-15T07:54:02;6.80;;;5.50;;
66886;SDS011;67239;51.680;5.976;2023-04-15T07:56:29;8.23;;;5.65;;
66886;SDS011;67239;51.680;5.976;2023-04-15T07:58:56;7.38;;;5.70;;
66886;SDS011;67239;51.680;5.976;2023-04-15T08:01:23;6.85;;;5.50;;
66886;SDS011;67239;51.680;5.976;2023-04-15T08:03:51;7.30;;;5.20;;
66886;SDS011;67239;51.680;5.976;2023-04-15T08:06:19;7.97;;;5.40;;
66886;SDS011;67239;51.680;5.976;2023-04-15T08:08:46;8.88;;;5.30;;
66886;SDS011;67239;51.680;5.976;2023-04-15T08:11:13;6.90;;;5.35;;
66886;SDS011;67239;51.680;5.976;2023-04-15T08:13:41;7.20;;;5.78;;
66886;SDS011;67239;51.680;5.976;2023-04-15T08:16:18;7.07;;;5.80;;
66886;SDS011;67239;51.680;5.976;2023-04-15T08:18:52;9.18;;;6.65;;
66886;SDS011;67239;51.680;5.976;2023-04-15T08:21:21;10.57;;;7.18;;
66886;SDS011;67239;51.680;5.976;2023-04-15T08:23:54;8.60;;;6.57;;
66886;SDS011;67239;51.680;5.976;2023-04-15T08:26:22;9.60;;;7.07;;
66886;SDS011;67239;51.680;5.976;2023-04-15T08:28:49;10.18;;;6.70;;
66886;SDS011;67239;51.680;5.976;2023-04-15T08:31:17;8.98;;;6.68;;
66886;SDS011;67239;51.680;5.976;2023-04-15T08:33:45;8.63;;;6.30;;
66886;SDS011;67239;51.680;5.976;2023-04-15T08:36:12;7.40;;;5.28;;
66886;SDS011;67239;51.680;5.976;2023-04-15T08:38:39;6.40;;;4.63;;
66886;SDS011;67239;51.680;5.976;2023-04-15T08:41:20;5.75;;;4.70;;
66886;SDS011;67239;51.680;5.976;2023-04-15T08:43:53;7.22;;;4.85;;
66886;SDS011;67239;51.680;5.976;2023-04-15T08:46:24;5.18;;;3.42;;
66886;SDS011;67239;51.680;5.976;2023-04-15T08:48:53;4.97;;;3.67;;
66886;SDS011;67239;51.680;5.976;2023-04-15T08:51:23;5.05;;;3.85;;
66886;SDS011;67239;51.680;5.976;2023-04-15T08:53:51;8.75;;;3.50;;
66886;SDS011;67239;51.680;5.976;2023-04-15T08:56:19;5.72;;;4.03;;
66886;SDS011;67239;51.680;5.976;2023-04-15T08:58:52;4.33;;;3.67;;
66886;SDS011;67239;51.680;5.976;2023-04-15T09:01:20;7.15;;;4.47;;
66886;SDS011;67239;51.680;5.976;2023-04-15T09:03:48;6.53;;;4.03;;
66886;SDS011;67239;51.680;5.976;2023-04-15T09:06:20;5.30;;;3.75;;
66886;SDS011;67239;51.680;5.976;2023-04-15T09:08:48;5.35;;;3.80;;
66886;SDS011;67239;51.680;5.976;2023-04-15T09:11:17;4.40;;;3.83;;
66886;SDS011;67239;51.680;5.976;2023-04-15T09:13:46;5.90;;;4.32;;
66886;SDS011;67239;51.680;5.976;2023-04-15T09:16:14;5.85;;;4.95;;
66886;SDS011;67239;51.680;5.976;2023-04-15T09:18:41;6.88;;;4.75;;
66886;SDS011;67239;51.680;5.976;2023-04-15T09:21:09;5.43;;;4.70;;
66886;SDS011;67239;51.680;5.976;2023-04-15T09:23:40;5.72;;;4.57;;
66886;SDS011;67239;51.680;5.976;2023-04-15T09:26:44;5.60;;;4.22;;
66886;SDS011;67239;51.680;5.976;2023-04-15T09:29:11;6.05;;;3.40;;
66886;SDS011;67239;51.680;5.976;2023-04-15T09:31:39;4.57;;;3.88;;
66886;SDS011;67239;51.680;5.976;2023-04-15T09:34:08;5.63;;;3.75;;
66886;SDS011;67239;51.680;5.976;2023-04-15T09:36:37;5.72;;;3.92;;
66886;SDS011;67239;51.680;5.976;2023-04-15T09:39:18;4.95;;;4.30;;
66886;SDS011;67239;51.680;5.976;2023-04-15T09:41:46;5.18;;;3.67;;
66886;SDS011;67239;51.680;5.976;2023-04-15T09:44:23;5.65;;;4.30;;
66886;SDS011;67239;51.680;5.976;2023-04-15T09:46:51;4.97;;;3.85;;
66886;SDS011;67239;51.680;5.976;2023-04-15T09:49:19;5.50;;;3.90;;
66886;SDS011;67239;51.680;5.976;2023-04-15T09:51:46;5.75;;;4.45;;
66886;SDS011;67239;51.680;5.976;2023-04-15T09:54:33;6.65;;;4.43;;
66886;SDS011;67239;51.680;5.976;2023-04-15T09:57:05;5.78;;;4.38;;
66886;SDS011;67239;51.680;5.976;2023-04-15T09:59:35;6.85;;;4.13;;
66886;SDS011;67239;51.680;5.976;2023-04-15T10:02:05;4.70;;;3.50;;
66886;SDS011;67239;51.680;5.976;2023-04-15T10:04:36;4.13;;;3.38;;
66886;SDS011;67239;51.680;5.976;2023-04-15T10:07:08;7.15;;;3.88;;
66886;SDS011;67239;51.680;5.976;2023-04-15T10:09:35;4.45;;;3.40;;
66886;SDS011;67239;51.680;5.976;2023-04-15T10:12:05;3.40;;;2.40;;
66886;SDS011;67239;51.680;5.976;2023-04-15T10:14:33;4.28;;;3.05;;
66886;SDS011;67239;51.680;5.976;2023-04-15T10:17:04;4.22;;;3.47;;
66886;SDS011;67239;51.680;5.976;2023-04-15T10:19:36;4.75;;;3.40;;
66886;SDS011;67239;51.680;5.976;2023-04-15T10:22:04;4.72;;;3.67;;
66886;SDS011;67239;51.680;5.976;2023-04-15T10:24:32;5.03;;;4.05;;
66886;SDS011;67239;51.680;5.976;2023-04-15T10:26:59;6.07;;;3.95;;
66886;SDS011;67239;51.680;5.976;2023-04-15T10:29:30;6.80;;;4.07;;
66886;SDS011;67239;51.680;5.976;2023-04-15T10:31:59;5.15;;;4.05;;
66886;SDS011;67239;51.680;5.976;2023-04-15T10:34:28;4.45;;;3.17;;
66886;SDS011;67239;51.680;5.976;2023-04-15T10:37:00;4.40;;;3.40;;
66886;SDS011;67239;51.680;5.976;2023-04-15T10:42:13;4.13;;;3.17;;
66886;SDS011;67239;51.680;5.976;2023-04-15T10:44:48;3.88;;;3.03;;
66886;SDS011;67239;51.680;5.976;2023-04-15T10:47:19;5.53;;;3.00;;
66886;SDS011;67239;51.680;5.976;2023-04-15T10:49:49;4.60;;;3.03;;
66886;SDS011;67239;51.680;5.976;2023-04-15T10:52:26;4.07;;;3.03;;
66886;SDS011;67239;51.680;5.976;2023-04-15T10:55:14;3.55;;;2.78;;
66886;SDS011;67239;51.680;5.976;2023-04-15T10:57:53;4.55;;;2.95;;
66886;SDS011;67239;51.680;5.976;2023-04-15T11:00:29;4.07;;;2.55;;
66886;SDS011;67239;51.680;5.976;2023-04-15T11:02:59;3.45;;;2.90;;
66886;SDS011;67239;51.680;5.976;2023-04-15T11:05:52;3.28;;;2.50;;
66886;SDS011;67239;51.680;5.976;2023-04-15T11:08:20;4.45;;;2.85;;
66886;SDS011;67239;51.680;5.976;2023-04-15T11:11:22;3.65;;;2.90;;
66886;SDS011;67239;51.680;5.976;2023-04-15T11:13:49;4.78;;;2.88;;
66886;SDS011;67239;51.680;5.976;2023-04-15T11:16:18;4.40;;;2.78;;
66886;SDS011;67239;51.680;5.976;2023-04-15T11:18:55;4.88;;;2.72;;
66886;SDS011;67239;51.680;5.976;2023-04-15T11:21:23;4.75;;;2.47;;
66886;SDS011;67239;51.680;5.976;2023-04-15T11:23:53;2.60;;;2.40;;
66886;SDS011;67239;51.680;5.976;2023-04-15T11:26:24;4.32;;;2.78;;
66886;SDS011;67239;51.680;5.976;2023-04-15T11:28:53;3.13;;;2.45;;
66886;SDS011;67239;51.680;5.976;2023-04-15T11:31:20;4.15;;;2.88;;
66886;SDS011;67239;51.680;5.976;2023-04-15T11:33:53;4.35;;;3.08;;
66886;SDS011;67239;51.680;5.976;2023-04-15T11:36:24;2.90;;;2.60;;
66886;SDS011;67239;51.680;5.976;2023-04-15T11:38:53;3.65;;;2.65;;
66886;SDS011;67239;51.680;5.976;2023-04-15T11:41:23;3.78;;;2.70;;
66886;SDS011;67239;51.680;5.976;2023-04-15T11:43:50;4.05;;;2.50;;
66886;SDS011;67239;51.680;5.976;2023-04-15T11:46:18;4.03;;;2.53;;
66886;SDS011;67239;51.680;5.976;2023-04-15T11:48:47;3.17;;;2.45;;
66886;SDS011;67239;51.680;5.976;2023-04-15T11:51:14;4.03;;;2.50;;
66886;SDS011;67239;51.680;5.976;2023-04-15T11:53:45;2.65;;;2.20;;
66886;SDS011;67239;51.680;5.976;2023-04-15T11:56:17;2.55;;;2.05;;
66886;SDS011;67239;51.680;5.976;2023-04-15T11:58:53;4.13;;;2.28;;
66886;SDS011;67239;51.680;5.976;2023-04-15T12:01:34;5.70;;;2.20;;
66886;SDS011;67239;51.680;5.976;2023-04-15T12:06:48;2.40;;;1.92;;
66886;SDS011;67239;51.680;5.976;2023-04-15T12:09:15;5.03;;;1.90;;
66886;SDS011;67239;51.680;5.976;2023-04-15T12:11:49;2.58;;;1.80;;
66886;SDS011;67239;51.680;5.976;2023-04-15T12:14:30;3.55;;;1.80;;
66886;SDS011;67239;51.680;5.976;2023-04-15T12:17:00;4.97;;;2.20;;
66886;SDS011;67239;51.680;5.976;2023-04-15T12:19:33;1.70;;;1.60;;
66886;SDS011;67239;51.680;5.976;2023-04-15T12:22:14;3.65;;;1.98;;
66886;SDS011;67239;51.680;5.976;2023-04-15T12:24:43;4.75;;;2.20;;
66886;SDS011;67239;51.680;5.976;2023-04-15T12:27:15;5.00;;;1.92;;
66886;SDS011;67239;51.680;5.976;2023-04-15T12:29:43;3.20;;;2.00;;
66886;SDS011;67239;51.680;5.976;2023-04-15T12:32:16;4.15;;;2.00;;
66886;SDS011;67239;51.680;5.976;2023-04-15T12:34:48;2.65;;;2.17;;
66886;SDS011;67239;51.680;5.976;2023-04-15T12:37:18;1.85;;;1.40;;
66886;SDS011;67239;51.680;5.976;2023-04-15T12:39:47;2.28;;;1.38;;
66886;SDS011;67239;51.680;5.976;2023-04-15T12:42:16;2.33;;;1.50;;
66886;SDS011;67239;51.680;5.976;2023-04-15T12:44:43;2.83;;;1.55;;
66886;SDS011;67239;51.680;5.976;2023-04-15T12:47:11;3.30;;;1.50;;
66886;SDS011;67239;51.680;5.976;2023-04-15T12:49:39;3.05;;;1.40;;
66886;SDS011;67239;51.680;5.976;2023-04-15T12:52:06;3.92;;;1.50;;
66886;SDS011;67239;51.680;5.976;2023-04-15T12:54:33;3.05;;;1.40;;
66886;SDS011;67239;51.680;5.976;2023-04-15T12:57:02;6.45;;;1.52;;
66886;SDS011;67239;51.680;5.976;2023-04-15T12:59:33;2.92;;;1.38;;
66886;SDS011;67239;51.680;5.976;2023-04-15T13:02:02;4.03;;;1.70;;
66886;SDS011;67239;51.680;5.976;2023-04-15T13:04:30;3.53;;;1.50;;
66886;SDS011;67239;51.680;5.976;2023-04-15T13:06:57;3.03;;;1.30;;
66886;SDS011;67239;51.680;5.976;2023-04-15T13:09:24;1.73;;;1.23;;
66886;SDS011;67239;51.680;5.976;2023-04-15T13:11:52;2.85;;;0.80;;
66886;SDS011;67239;51.680;5.976;2023-04-15T13:14:19;1.95;;;1.20;;
66886;SDS011;67239;51.680;5.976;2023-04-15T13:16:47;3.10;;;1.08;;
66886;SDS011;67239;51.680;5.976;2023-04-15T13:19:14;2.22;;;1.20;;
66886;SDS011;67239;51.680;5.976;2023-04-15T13:21:41;2.10;;;0.90;;
66886;SDS011;67239;51.680;5.976;2023-04-15T13:24:08;1.63;;;1.00;;
66886;SDS011;67239;51.680;5.976;2023-04-15T13:26:35;2.00;;;1.00;;
66886;SDS011;67239;51.680;5.976;2023-04-15T13:29:03;2.67;;;1.00;;
66886;SDS011;67239;51.680;5.976;2023-04-15T13:31:31;2.17;;;1.10;;
66886;SDS011;67239;51.680;5.976;2023-04-15T13:33:58;1.80;;;1.00;;
66886;SDS011;67239;51.680;5.976;2023-04-15T13:36:25;3.40;;;1.00;;
66886;SDS011;67239;51.680;5.976;2023-04-15T13:38:53;2.53;;;0.98;;
66886;SDS011;67239;51.680;5.976;2023-04-15T13:41:20;1.88;;;1.10;;
66886;SDS011;67239;51.680;5.976;2023-04-15T13:43:48;1.42;;;0.95;;
66886;SDS011;67239;51.680;5.976;2023-04-15T13:46:15;1.70;;;1.00;;
66886;SDS011;67239;51.680;5.976;2023-04-15T13:48:42;2.22;;;0.90;;
66886;SDS011;67239;51.680;5.976;2023-04-15T13:51:09;4.22;;;1.00;;
66886;SDS011;67239;51.680;5.976;2023-04-15T13:53:36;2.72;;;1.10;;
66886;SDS011;67239;51.680;5.976;2023-04-15T13:56:06;5.07;;;1.33;;
66886;SDS011;67239;51.680;5.976;2023-04-15T13:58:34;4.05;;;1.05;;
66886;SDS011;67239;51.680;5.976;2023-04-15T14:01:03;2.67;;;1.10;;
66886;SDS011;67239;51.680;5.976;2023-04-15T14:03:33;2.75;;;1.00;;
66886;SDS011;67239;51.680;5.976;2023-04-15T14:06:02;1.80;;;0.98;;
66886;SDS011;67239;51.680;5.976;2023-04-15T14:08:31;1.50;;;0.90;;
66886;SDS011;67239;51.680;5.976;2023-04-15T14:10:59;2.08;;;1.00;;
66886;SDS011;67239;51.680;5.976;2023-04-15T14:13:26;2.75;;;0.95;;
66886;SDS011;67239;51.680;5.976;2023-04-15T14:15:53;4.68;;;0.88;;
66886;SDS011;67239;51.680;5.976;2023-04-15T14:18:22;2.35;;;0.80;;
66886;SDS011;67239;51.680;5.976;2023-04-15T14:20:49;3.00;;;0.80;;
66886;SDS011;67239;51.680;5.976;2023-04-15T14:23:16;2.60;;;0.80;;
66886;SDS011;67239;51.680;5.976;2023-04-15T14:25:44;3.30;;;0.77;;
66886;SDS011;67239;51.680;5.976;2023-04-15T14:28:14;2.75;;;0.70;;
66886;SDS011;67239;51.680;5.976;2023-04-15T14:30:41;1.77;;;0.95;;
66886;SDS011;67239;51.680;5.976;2023-04-15T14:33:08;3.00;;;0.70;;
66886;SDS011;67239;51.680;5.976;2023-04-15T14:35:36;1.75;;;0.68;;
66886;SDS011;67239;51.680;5.976;2023-04-15T14:38:03;2.28;;;0.70;;
66886;SDS011;67239;51.680;5.976;2023-04-15T14:40:32;2.53;;;0.70;;
66886;SDS011;67239;51.680;5.976;2023-04-15T14:42:59;1.17;;;0.70;;
66886;SDS011;67239;51.680;5.976;2023-04-15T14:45:26;1.23;;;0.60;;
66886;SDS011;67239;51.680;5.976;2023-04-15T14:47:54;2.50;;;0.80;;
66886;SDS011;67239;51.680;5.976;2023-04-15T14:50:21;1.27;;;0.80;;
66886;SDS011;67239;51.680;5.976;2023-04-15T14:52:48;1.25;;;0.75;;
66886;SDS011;67239;51.680;5.976;2023-04-15T14:55:16;2.00;;;0.80;;
66886;SDS011;67239;51.680;5.976;2023-04-15T14:57:43;2.08;;;0.65;;
66886;SDS011;67239;51.680;5.976;2023-04-15T15:00:10;2.17;;;0.88;;